Terminal Aerodrome Forecast
Issued by NWS

Home | Current Version | Previous Version | Text Only | Print | Product List | Glossary On
Versions: 1 2 3 4 5 6 7 8 9 10 11 12 13 14 15 16 17 18 19 20 21 22 23 24 25 26 27 28 29 30 31 32 33 34 35 36 37 38 39 40 41 42 43 44 45 46 47 48 49 50
000
FTUS45 KBOU 061135
TAFBJC
TAF
KBJC 061135Z 0612/0712 25003KT P6SM VCFG SCT002 BKN080
     FM061400 VRB04KT P6SM SCT025 BKN080
     FM062000 03008KT P6SM VCTS SCT040CB BKN080 OVC120
      TEMPO 0621/0701 VRB15G25KT 4SM SHRA BKN030
     FM070200 04010KT P6SM SCT008 OVC020
     FM070600 04006KT P6SM VCFG SCT004 OVC008
     FM071100 VRB03KT 1SM BR OVC004=

USA.gov is the U.S. government's official web portal to all federal, state and local government web resources and services.